createdAt,value
2023-01-19T00:02:15.753Z,9.85
2023-01-19T00:04:42.058Z,10.40
2023-01-19T00:07:08.410Z,10.45
2023-01-19T00:12:01.069Z,9.85
2023-01-19T00:14:27.438Z,10.40
2023-01-19T00:16:53.773Z,10.48
2023-01-19T00:19:20.202Z,10.45
2023-01-19T00:24:12.957Z,9.48
2023-01-19T00:29:12.542Z,8.60
2023-01-19T00:31:39.158Z,8.02
2023-01-19T00:34:06.586Z,8.98
2023-01-19T00:36:33.427Z,8.68
2023-01-19T00:39:00.026Z,7.75
2023-01-19T00:41:26.531Z,9.48
2023-01-19T00:43:52.851Z,7.78
2023-01-19T00:46:19.203Z,7.80
2023-01-19T00:48:45.522Z,8.95
2023-01-19T00:51:11.847Z,9.15
2023-01-19T00:53:38.883Z,8.32
2023-01-19T00:56:05.637Z,8.30
2023-01-19T00:58:31.967Z,7.90
2023-01-19T01:00:58.374Z,9.32
2023-01-19T01:05:51.149Z,8.27
2023-01-19T01:08:17.508Z,8.40
2023-01-19T01:10:43.869Z,9.23
2023-01-19T01:13:19.976Z,8.48
2023-01-19T01:15:54.566Z,9.15
2023-01-19T01:18:21.641Z,7.50
2023-01-19T01:20:48.024Z,8.30
2023-01-19T01:23:14.703Z,6.63
2023-01-19T01:25:41.409Z,10.32
2023-01-19T01:28:08.150Z,7.57
2023-01-19T01:30:36.156Z,9.63
2023-01-19T01:33:02.935Z,9.40
2023-01-19T01:35:29.486Z,10.38
2023-01-19T01:37:58.229Z,7.97
2023-01-19T01:40:24.619Z,10.60
2023-01-19T01:42:50.970Z,10.55
2023-01-19T01:45:36.693Z,11.32
2023-01-19T01:48:09.829Z,10.43
2023-01-19T01:50:41.490Z,10.20
2023-01-19T01:53:14.782Z,11.18
2023-01-19T01:55:46.335Z,11.20
2023-01-19T01:58:14.829Z,10.60
2023-01-19T02:00:41.930Z,11.13
2023-01-19T02:03:08.420Z,10.77
2023-01-19T02:08:15.331Z,10.70
2023-01-19T02:10:42.929Z,10.85
2023-01-19T02:13:09.379Z,9.38
2023-01-19T02:18:02.077Z,9.07
2023-01-19T02:23:01.863Z,9.93
2023-01-19T02:25:28.865Z,8.73
2023-01-19T02:27:55.545Z,9.98
2023-01-19T02:30:22.003Z,9.38
2023-01-19T02:35:15.820Z,8.20
2023-01-19T02:37:44.210Z,6.78
2023-01-19T02:40:13.915Z,7.13
2023-01-19T02:42:49.884Z,6.70
2023-01-19T02:45:19.886Z,6.88
2023-01-19T02:47:48.704Z,6.82
2023-01-19T02:50:36.090Z,5.85
2023-01-19T02:53:34.805Z,5.80
2023-01-19T02:56:26.577Z,5.72
2023-01-19T02:59:31.544Z,5.38
2023-01-19T03:02:24.192Z,5.20
2023-01-19T03:05:19.504Z,5.30
2023-01-19T03:08:09.378Z,4.55
2023-01-19T03:10:38.435Z,4.82
2023-01-19T03:13:13.179Z,4.90
2023-01-19T03:15:48.976Z,4.82
2023-01-19T03:18:20.167Z,4.57
2023-01-19T03:20:50.107Z,5.20
2023-01-19T03:23:18.398Z,4.75
2023-01-19T03:25:48.135Z,4.45
2023-01-19T03:28:19.392Z,4.38
2023-01-19T03:30:50.452Z,5.30
2023-01-19T03:33:25.019Z,4.40
2023-01-19T03:35:57.191Z,4.32
2023-01-19T03:38:27.255Z,4.13
2023-01-19T03:40:58.472Z,4.32
2023-01-19T03:43:26.452Z,3.88
2023-01-19T03:45:53.617Z,4.10
2023-01-19T03:48:21.803Z,3.75
2023-01-19T03:50:48.135Z,3.53
2023-01-19T03:53:16.979Z,3.30
2023-01-19T03:55:46.427Z,3.60
2023-01-19T03:58:13.244Z,2.92
2023-01-19T04:00:40.111Z,3.03
2023-01-19T04:03:13.131Z,2.70
2023-01-19T04:05:39.733Z,2.60
2023-01-19T04:08:06.476Z,3.13
2023-01-19T04:10:32.834Z,3.00
2023-01-19T04:13:01.020Z,2.90
2023-01-19T04:15:29.057Z,2.70
2023-01-19T04:17:58.448Z,2.42
2023-01-19T04:20:25.338Z,2.00
2023-01-19T04:22:51.641Z,2.55
2023-01-19T04:25:18.065Z,1.85
2023-01-19T04:30:11.465Z,2.10
2023-01-19T04:32:37.895Z,2.20
2023-01-19T04:35:04.862Z,1.70
2023-01-19T04:37:31.295Z,1.50
2023-01-19T04:42:23.807Z,1.92
2023-01-19T04:44:50.162Z,1.92
2023-01-19T04:49:42.799Z,1.42
2023-01-19T04:54:35.501Z,1.20
2023-01-19T04:59:28.195Z,1.02
2023-01-19T05:04:21.107Z,0.73
2023-01-19T05:09:13.924Z,1.00
2023-01-19T05:11:40.288Z,0.93
2023-01-19T05:16:33.338Z,1.45
2023-01-19T05:21:25.947Z,1.05
2023-01-19T05:26:18.639Z,1.20
2023-01-19T05:31:11.333Z,1.10
2023-01-19T05:36:04.190Z,1.38
2023-01-19T05:38:35.449Z,1.60
2023-01-19T05:41:02.435Z,1.25
2023-01-19T05:43:28.808Z,1.00
2023-01-19T05:45:55.166Z,1.20
2023-01-19T05:50:47.766Z,1.20
2023-01-19T05:55:40.386Z,1.10
2023-01-19T06:00:33.094Z,1.05
2023-01-19T06:05:26.388Z,1.20
2023-01-19T06:10:19.222Z,1.42
2023-01-19T06:12:45.542Z,1.17
2023-01-19T06:17:38.215Z,1.35
2023-01-19T06:22:31.058Z,1.10
2023-01-19T06:24:57.390Z,1.30
2023-01-19T06:27:23.735Z,1.15
2023-01-19T06:29:50.035Z,1.13
2023-01-19T06:32:16.479Z,1.00
2023-01-19T06:37:10.684Z,1.00
2023-01-19T06:39:37.608Z,1.55
2023-01-19T06:42:03.967Z,1.20
2023-01-19T06:44:30.273Z,1.23
2023-01-19T06:47:15.318Z,1.20
2023-01-19T06:49:42.529Z,1.38
2023-01-19T06:54:36.016Z,1.40
2023-01-19T06:57:03.566Z,1.20
2023-01-19T06:59:29.992Z,1.70
2023-01-19T07:04:23.131Z,1.20
2023-01-19T07:06:50.137Z,1.50
2023-01-19T07:09:16.996Z,1.30
2023-01-19T07:11:43.477Z,1.67
2023-01-19T07:14:09.905Z,1.70
2023-01-19T07:19:02.644Z,1.48
2023-01-19T07:23:55.919Z,1.63
2023-01-19T07:26:22.320Z,1.50
2023-01-19T07:31:16.021Z,1.52
2023-01-19T07:33:42.505Z,1.55
2023-01-19T07:38:35.376Z,1.13
2023-01-19T07:43:28.777Z,1.40
2023-01-19T07:45:59.456Z,1.10
2023-01-19T07:48:26.354Z,1.75
2023-01-19T07:50:52.893Z,1.75
2023-01-19T07:53:19.785Z,1.40
2023-01-19T07:55:46.211Z,1.00
2023-01-19T08:00:39.292Z,1.83
2023-01-19T08:03:05.874Z,1.63
2023-01-19T08:05:33.366Z,1.50
2023-01-19T08:07:59.871Z,1.45
2023-01-19T08:12:57.735Z,1.73
2023-01-19T08:15:25.109Z,1.40
2023-01-19T08:18:02.741Z,1.55
2023-01-19T08:20:29.617Z,1.20
2023-01-19T08:22:56.552Z,1.55
2023-01-19T08:25:22.881Z,1.55
2023-01-19T08:27:49.248Z,1.55
2023-01-19T08:32:42.261Z,1.88
2023-01-19T08:35:08.890Z,1.30
2023-01-19T08:37:35.277Z,1.58
2023-01-19T08:42:28.218Z,1.38
2023-01-19T08:44:58.641Z,1.63
2023-01-19T08:47:25.243Z,1.48
2023-01-19T08:49:51.730Z,1.65
2023-01-19T08:52:18.096Z,1.35
2023-01-19T08:57:10.756Z,1.60
2023-01-19T08:59:37.189Z,1.40
2023-01-19T09:04:30.104Z,1.30
2023-01-19T09:06:56.519Z,1.40
2023-01-19T09:11:49.128Z,1.77
2023-01-19T09:16:41.844Z,1.65
2023-01-19T09:19:08.162Z,1.65
2023-01-19T09:21:34.796Z,1.45
2023-01-19T09:24:01.135Z,1.88
2023-01-19T09:28:54.064Z,1.70
2023-01-19T09:31:20.602Z,2.00
2023-01-19T09:33:47.222Z,2.35
2023-01-19T09:36:13.690Z,2.15
2023-01-19T09:38:40.290Z,2.08
2023-01-19T09:41:19.815Z,2.20
2023-01-19T09:43:54.594Z,2.10
2023-01-19T09:46:40.424Z,2.45
2023-01-19T09:49:25.531Z,2.17
2023-01-19T09:51:52.418Z,2.42
2023-01-19T09:54:29.950Z,2.15
2023-01-19T09:56:56.417Z,1.95
2023-01-19T09:59:30.209Z,1.92
2023-01-19T10:02:18.295Z,2.00
2023-01-19T10:04:50.392Z,2.00
2023-01-19T10:07:24.323Z,2.25
2023-01-19T10:10:04.751Z,1.67
2023-01-19T10:12:57.395Z,1.95
2023-01-19T10:15:37.880Z,2.10
2023-01-19T10:18:13.652Z,1.88
2023-01-19T10:21:08.197Z,1.55
2023-01-19T10:23:46.056Z,1.83
2023-01-19T10:26:17.489Z,2.03
2023-01-19T10:28:46.919Z,2.05
2023-01-19T10:31:14.248Z,1.75
2023-01-19T10:33:40.963Z,1.63
2023-01-19T10:36:17.623Z,2.00
2023-01-19T10:38:44.561Z,1.60
2023-01-19T10:41:28.387Z,1.90
2023-01-19T10:44:00.221Z,1.75
2023-01-19T10:46:33.439Z,1.75
2023-01-19T10:49:00.089Z,1.67
2023-01-19T10:51:26.739Z,1.80
2023-01-19T10:54:13.262Z,1.52
2023-01-19T10:56:39.927Z,2.00
2023-01-19T10:59:07.186Z,1.67
2023-01-19T11:01:34.104Z,2.17
2023-01-19T11:04:00.546Z,1.92
2023-01-19T11:06:30.279Z,1.70
2023-01-19T11:09:32.181Z,1.50
2023-01-19T11:11:58.564Z,1.73
2023-01-19T11:14:26.292Z,1.50
2023-01-19T11:16:56.162Z,1.70
2023-01-19T11:19:28.850Z,1.52
2023-01-19T11:22:16.986Z,1.40
2023-01-19T11:24:43.976Z,1.50
2023-01-19T11:27:10.476Z,1.40
2023-01-19T11:29:37.132Z,1.50
2023-01-19T11:32:18.333Z,1.50
2023-01-19T11:34:44.708Z,1.40
2023-01-19T11:37:19.948Z,1.70
2023-01-19T11:39:52.520Z,1.50
2023-01-19T11:42:20.353Z,1.38
2023-01-19T11:45:03.218Z,1.55
2023-01-19T11:47:41.448Z,1.30
2023-01-19T11:52:51.311Z,1.20
2023-01-19T11:55:36.181Z,1.00
2023-01-19T11:58:04.387Z,1.30
2023-01-19T12:00:38.352Z,1.15
2023-01-19T12:03:15.389Z,1.75
2023-01-19T12:05:48.403Z,1.02
2023-01-19T12:08:39.376Z,1.20
2023-01-19T12:11:08.925Z,0.95
2023-01-19T12:13:36.201Z,1.13
2023-01-19T12:16:20.639Z,1.30
2023-01-19T12:18:54.367Z,0.88
2023-01-19T12:21:21.710Z,1.02
2023-01-19T12:24:15.482Z,1.08
2023-01-19T12:26:55.806Z,0.90
2023-01-19T12:29:25.877Z,0.93
2023-01-19T12:32:14.333Z,0.70
2023-01-19T12:34:48.595Z,1.00
2023-01-19T12:37:27.264Z,0.85
2023-01-19T12:39:56.879Z,0.90
2023-01-19T12:42:23.938Z,0.82
2023-01-19T12:45:05.338Z,0.80
2023-01-19T12:47:32.262Z,0.98
2023-01-19T12:50:05.697Z,0.65
2023-01-19T12:52:54.716Z,0.75
2023-01-19T12:55:27.055Z,1.10
2023-01-19T12:57:59.539Z,0.98
2023-01-19T13:00:25.808Z,1.20
2023-01-19T13:05:24.517Z,1.42
2023-01-19T13:08:03.177Z,0.93
2023-01-19T13:11:00.706Z,0.80
2023-01-19T13:13:39.431Z,1.00
2023-01-19T13:16:18.111Z,1.00
2023-01-19T13:19:07.715Z,0.80
2023-01-19T13:21:36.795Z,0.98
2023-01-19T13:24:13.791Z,1.13
2023-01-19T13:26:42.824Z,0.90
2023-01-19T13:29:23.002Z,1.17
2023-01-19T13:31:49.792Z,1.17
2023-01-19T13:34:22.444Z,0.90
2023-01-19T13:36:54.418Z,0.88
2023-01-19T13:39:30.054Z,1.08
2023-01-19T13:42:00.859Z,1.10
2023-01-19T13:44:41.489Z,1.10
2023-01-19T13:47:15.459Z,0.80
2023-01-19T13:49:45.242Z,1.10
2023-01-19T13:52:29.688Z,1.00
2023-01-19T13:54:59.248Z,0.90
2023-01-19T13:57:32.267Z,0.80
2023-01-19T14:00:16.775Z,1.02
2023-01-19T14:02:54.056Z,0.95
2023-01-19T14:05:34.765Z,1.73
2023-01-19T14:08:02.267Z,1.10
2023-01-19T14:10:28.617Z,1.05
2023-01-19T14:13:22.226Z,1.13
2023-01-19T14:15:51.586Z,0.93
2023-01-19T14:18:18.135Z,0.90
2023-01-19T14:21:02.537Z,1.20
2023-01-19T14:23:50.164Z,0.80
2023-01-19T14:26:49.193Z,1.00
2023-01-19T14:29:32.773Z,1.10
2023-01-19T14:32:25.791Z,1.60
2023-01-19T14:34:59.095Z,0.93
2023-01-19T14:37:33.680Z,1.10
2023-01-19T14:40:09.270Z,1.15
2023-01-19T14:42:38.563Z,0.80
2023-01-19T14:45:16.194Z,1.00
2023-01-19T14:47:45.281Z,1.00
2023-01-19T14:50:17.789Z,0.70
2023-01-19T14:52:51.525Z,0.95
2023-01-19T14:55:33.818Z,0.90
2023-01-19T14:58:00.237Z,1.13
2023-01-19T15:00:27.153Z,0.88
2023-01-19T15:02:53.533Z,1.33
2023-01-19T15:05:20.304Z,0.88
2023-01-19T15:07:47.193Z,1.02
2023-01-19T15:10:22.321Z,1.17
2023-01-19T15:12:50.380Z,1.52
2023-01-19T15:15:20.796Z,0.77
2023-01-19T15:17:47.150Z,1.20
2023-01-19T15:20:15.975Z,1.10
2023-01-19T15:22:42.503Z,1.00
2023-01-19T15:25:12.501Z,0.90
2023-01-19T15:27:38.967Z,1.10
2023-01-19T15:30:14.371Z,0.90
2023-01-19T15:32:40.724Z,1.05
2023-01-19T15:37:39.212Z,0.90
2023-01-19T15:40:06.467Z,1.30
2023-01-19T15:42:32.902Z,1.08
2023-01-19T15:44:59.269Z,1.27
2023-01-19T15:47:25.689Z,1.20
2023-01-19T15:49:52.052Z,0.95
2023-01-19T15:52:18.536Z,0.90
2023-01-19T15:54:45.065Z,0.82
2023-01-19T15:57:11.378Z,1.10
2023-01-19T16:02:04.552Z,1.27
2023-01-19T16:04:31.012Z,0.98
2023-01-19T16:09:23.745Z,1.02
2023-01-19T16:11:50.084Z,0.90
2023-01-19T16:16:44.413Z,1.08
2023-01-19T16:19:14.252Z,1.00
2023-01-19T16:21:40.611Z,1.00
2023-01-19T16:26:35.045Z,0.80
2023-01-19T16:29:06.870Z,1.00
2023-01-19T16:31:33.302Z,0.90
2023-01-19T16:36:31.303Z,1.23
2023-01-19T16:39:03.779Z,1.10
2023-01-19T16:43:58.109Z,0.93
2023-01-19T16:46:27.195Z,0.90
2023-01-19T16:48:58.311Z,1.23
2023-01-19T16:51:24.931Z,1.25
2023-01-19T16:53:52.484Z,1.55
2023-01-19T16:56:19.349Z,1.58
2023-01-19T16:58:45.956Z,1.60
2023-01-19T17:01:15.038Z,1.50
2023-01-19T17:03:42.507Z,1.42
2023-01-19T17:06:11.419Z,1.30
2023-01-19T17:08:38.528Z,1.35
2023-01-19T17:11:10.281Z,1.42
2023-01-19T17:13:37.007Z,1.70
2023-01-19T17:16:05.168Z,1.48
2023-01-19T17:18:33.674Z,1.90
2023-01-19T17:21:04.461Z,1.73
2023-01-19T17:23:31.189Z,1.55
2023-01-19T17:25:58.682Z,1.77
2023-01-19T17:28:25.868Z,1.48
2023-01-19T17:30:52.783Z,1.50
2023-01-19T17:33:20.991Z,1.95
2023-01-19T17:35:47.413Z,1.98
2023-01-19T17:40:40.679Z,1.63
2023-01-19T17:45:36.996Z,1.85
2023-01-19T17:48:04.902Z,2.50
2023-01-19T17:50:34.067Z,2.00
2023-01-19T17:53:00.855Z,1.92
2023-01-19T17:55:27.344Z,2.13
2023-01-19T18:00:20.281Z,2.63
2023-01-19T18:02:49.844Z,3.53
2023-01-19T18:05:16.666Z,2.75
2023-01-19T18:07:43.126Z,2.63
2023-01-19T18:12:36.546Z,2.95
2023-01-19T18:15:04.285Z,2.88
2023-01-19T18:17:31.054Z,2.80
2023-01-19T18:19:58.006Z,2.85
2023-01-19T18:22:24.684Z,3.25
2023-01-19T18:24:51.094Z,3.22
2023-01-19T18:27:17.424Z,3.22
2023-01-19T18:29:44.290Z,3.25
2023-01-19T18:32:10.770Z,3.63
2023-01-19T18:37:03.999Z,2.85
2023-01-19T18:39:30.392Z,3.28
2023-01-19T18:41:57.208Z,3.65
2023-01-19T18:44:23.529Z,4.55
2023-01-19T18:46:49.929Z,5.25
2023-01-19T18:51:42.638Z,5.72
2023-01-19T18:54:10.701Z,4.80
2023-01-19T18:56:37.058Z,5.50
2023-01-19T18:59:03.649Z,6.18
2023-01-19T19:01:33.131Z,7.00
2023-01-19T19:04:00.330Z,7.35
2023-01-19T19:06:27.253Z,7.63
2023-01-19T19:08:57.996Z,7.68
2023-01-19T19:11:25.324Z,9.63
2023-01-19T19:14:02.088Z,8.65
2023-01-19T19:16:29.272Z,9.77
2023-01-19T19:18:55.696Z,10.63
2023-01-19T19:23:51.145Z,10.18
2023-01-19T19:26:17.666Z,11.68
2023-01-19T19:31:13.206Z,10.55
2023-01-19T19:33:40.213Z,11.80
2023-01-19T19:36:08.551Z,11.75
2023-01-19T19:38:36.932Z,12.63
2023-01-19T19:41:13.571Z,11.75
2023-01-19T19:43:40.215Z,12.82
2023-01-19T19:46:09.132Z,10.73
2023-01-19T19:48:38.981Z,12.48
2023-01-19T19:51:18.802Z,13.30
2023-01-19T19:53:46.321Z,12.30
2023-01-19T19:56:13.452Z,13.02
2023-01-19T19:58:40.961Z,13.40
2023-01-19T20:01:12.528Z,13.52
2023-01-19T20:03:39.384Z,12.18
2023-01-19T20:06:07.434Z,12.52
2023-01-19T20:08:34.412Z,14.48
2023-01-19T20:11:06.436Z,13.70
2023-01-19T20:13:34.474Z,12.18
2023-01-19T20:16:05.549Z,13.00
2023-01-19T20:18:32.817Z,12.93
2023-01-19T20:21:00.051Z,12.27
2023-01-19T20:23:26.660Z,11.63
2023-01-19T20:25:53.022Z,11.55
2023-01-19T20:28:19.693Z,11.45
2023-01-19T20:30:46.170Z,11.10
2023-01-19T20:33:12.661Z,9.85
2023-01-19T20:38:05.264Z,9.55
2023-01-19T20:40:31.724Z,9.02
2023-01-19T20:45:24.543Z,8.52
2023-01-19T20:47:53.108Z,7.20
2023-01-19T20:50:19.484Z,7.90
2023-01-19T20:52:45.834Z,8.15
2023-01-19T20:55:12.561Z,7.63
2023-01-19T20:57:39.015Z,7.93
2023-01-19T21:00:05.945Z,7.50
2023-01-19T21:02:32.335Z,6.25
2023-01-19T21:04:58.731Z,6.32
2023-01-19T21:07:25.069Z,6.30
2023-01-19T21:09:51.467Z,6.22
2023-01-19T21:14:44.321Z,5.57
2023-01-19T21:17:10.662Z,5.45
2023-01-19T21:19:37.021Z,5.72
2023-01-19T21:22:03.416Z,5.05
2023-01-19T21:26:56.031Z,5.20
2023-01-19T21:29:22.531Z,5.20
2023-01-19T21:34:15.199Z,4.00
2023-01-19T21:36:41.496Z,4.80
2023-01-19T21:39:07.944Z,4.90
2023-01-19T21:44:00.996Z,4.30
2023-01-19T21:46:28.347Z,4.68
2023-01-19T21:48:59.894Z,4.88
2023-01-19T21:51:27.216Z,4.25
2023-01-19T21:53:53.639Z,4.28
2023-01-19T21:58:47.344Z,4.03
2023-01-19T22:01:14.084Z,4.85
2023-01-19T22:03:41.871Z,4.43
2023-01-19T22:06:11.071Z,4.78
2023-01-19T22:08:37.868Z,4.68
2023-01-19T22:11:06.023Z,4.72
2023-01-19T22:13:33.415Z,5.15
2023-01-19T22:16:05.409Z,5.03
2023-01-19T22:18:31.850Z,5.93
2023-01-19T22:23:33.045Z,6.30
2023-01-19T22:26:00.135Z,6.75
2023-01-19T22:28:26.518Z,6.95
2023-01-19T22:30:52.951Z,7.35
2023-01-19T22:33:19.431Z,7.35
2023-01-19T22:35:45.849Z,7.88
2023-01-19T22:40:38.438Z,7.13
2023-01-19T22:43:04.810Z,7.75
2023-01-19T22:45:31.277Z,7.80
2023-01-19T22:50:23.915Z,7.07
2023-01-19T22:52:55.235Z,7.03
2023-01-19T22:55:21.591Z,7.20
2023-01-19T22:57:47.937Z,7.25
2023-01-19T23:00:14.805Z,6.93
2023-01-19T23:02:41.150Z,7.05
2023-01-19T23:05:07.483Z,6.60
2023-01-19T23:07:33.802Z,7.45
2023-01-19T23:10:00.224Z,7.30
2023-01-19T23:14:52.896Z,7.40
2023-01-19T23:17:19.265Z,7.15
2023-01-19T23:22:11.938Z,7.13
2023-01-19T23:24:38.422Z,6.95
2023-01-19T23:29:31.063Z,6.55
2023-01-19T23:31:57.412Z,7.53
2023-01-19T23:34:23.772Z,7.30
2023-01-19T23:36:50.141Z,7.38
2023-01-19T23:39:19.864Z,7.75
2023-01-19T23:41:46.629Z,7.35
2023-01-19T23:44:13.028Z,7.00
2023-01-19T23:46:39.385Z,6.78
2023-01-19T23:49:05.917Z,6.57
2023-01-19T23:51:33.044Z,5.68
2023-01-19T23:54:00.428Z,6.03
2023-01-19T23:56:32.846Z,5.95
2023-01-19T23:59:07.736Z,6.10
